Time;durP1;ratioP1;P1;durP2;ratioP2;P2;SDS_P1;SDS_P2;PMS_P1;PMS_P2;Temp;Humidity;BMP_temperature;BMP_pressure;BME280_temperature;BME280_humidity;BME280_pressure;Samples;Min_cycle;Max_cycle;Signal;HPM_P1;HPM_P2
2023/04/18 00:00:48;;;;;;;6.93;5.50;;;9.60;64.60;;;;;;942176;148;27321;-74
2023/04/18 00:03:14;;;;;;;5.53;4.90;;;9.50;64.60;;;;;;943180;148;27351;-75
2023/04/18 00:05:39;;;;;;;5.77;5.10;;;9.50;64.70;;;;;;944250;148;27462;-72
2023/04/18 00:08:06;;;;;;;6.80;4.83;;;9.50;64.80;;;;;;930499;149;27518;-72
2023/04/18 00:10:32;;;;;;;6.07;4.67;;;9.40;64.80;;;;;;929570;149;27505;-72
2023/04/18 00:12:59;;;;;;;5.30;4.60;;;9.30;64.90;;;;;;937001;148;27287;-72
2023/04/18 00:15:28;;;;;;;6.00;4.73;;;9.30;64.90;;;;;;936996;148;27378;-72
2023/04/18 00:17:55;;;;;;;5.40;4.70;;;9.20;65.00;;;;;;929324;149;27470;-72
2023/04/18 00:20:19;;;;;;;6.50;5.10;;;9.20;65.20;;;;;;927842;149;27329;-72
2023/04/18 00:22:46;;;;;;;8.83;4.70;;;9.10;65.30;;;;;;928991;149;27477;-72
2023/04/18 00:25:12;;;;;;;7.03;4.90;;;9.10;65.40;;;;;;936524;148;27310;-72
2023/04/18 00:27:38;;;;;;;5.27;4.80;;;9.00;65.50;;;;;;920076;150;27903;-73
2023/04/18 00:30:05;;;;;;;7.13;4.70;;;8.90;65.90;;;;;;929097;149;27803;-72
2023/04/18 00:32:32;;;;;;;6.37;5.10;;;8.90;65.80;;;;;;928627;149;27451;-73
2023/04/18 00:34:58;;;;;;;6.47;5.47;;;8.80;66.10;;;;;;936820;148;27696;-73
2023/04/18 00:37:25;;;;;;;5.53;4.90;;;8.80;66.00;;;;;;935953;148;27307;-74
2023/04/18 00:39:52;;;;;;;7.10;4.50;;;8.70;66.10;;;;;;936959;148;27447;-75
2023/04/18 00:42:18;;;;;;;9.07;5.07;;;8.70;66.20;;;;;;940098;147;27400;-75
2023/04/18 00:44:44;;;;;;;5.50;5.00;;;8.60;66.30;;;;;;941219;147;27323;-75
2023/04/18 00:47:11;;;;;;;5.23;4.67;;;8.60;66.50;;;;;;933895;149;27434;-75
2023/04/18 00:49:38;;;;;;;5.23;4.73;;;8.50;66.60;;;;;;932122;149;27940;-75
2023/04/18 00:52:04;;;;;;;6.30;5.10;;;8.50;66.90;;;;;;931413;149;28019;-75
2023/04/18 00:54:31;;;;;;;5.23;4.73;;;8.50;66.90;;;;;;932104;149;27334;-75
2023/04/18 00:56:57;;;;;;;7.40;6.23;;;8.50;67.10;;;;;;937183;148;27338;-72
2023/04/18 00:59:24;;;;;;;4.70;4.30;;;8.40;67.10;;;;;;935980;148;27342;-73
2023/04/18 01:01:51;;;;;;;15.10;5.17;;;8.40;67.20;;;;;;937479;148;27909;-73
2023/04/18 01:04:17;;;;;;;6.97;5.17;;;8.40;67.40;;;;;;937297;148;27368;-73
2023/04/18 01:06:44;;;;;;;5.63;5.07;;;8.40;67.40;;;;;;928707;149;27905;-73
2023/04/18 01:09:10;;;;;;;7.07;5.30;;;8.30;67.50;;;;;;931898;149;27429;-72
2023/04/18 01:11:37;;;;;;;7.27;5.63;;;8.30;67.60;;;;;;932348;149;27446;-72
2023/04/18 01:14:03;;;;;;;5.23;4.73;;;8.30;67.70;;;;;;932034;149;27760;-72
2023/04/18 01:16:31;;;;;;;7.73;5.50;;;8.30;67.70;;;;;;932226;149;27322;-72
2023/04/18 01:18:57;;;;;;;5.90;5.30;;;8.30;67.80;;;;;;932052;149;27808;-74
2023/04/18 01:21:23;;;;;;;5.77;5.17;;;8.30;67.80;;;;;;910822;153;27475;-75
2023/04/18 01:23:50;;;;;;;5.57;5.07;;;8.20;67.80;;;;;;910546;153;27481;-75
2023/04/18 01:26:16;;;;;;;6.00;5.17;;;8.20;67.80;;;;;;894342;155;28087;-73
2023/04/18 01:28:43;;;;;;;6.83;5.40;;;8.20;68.00;;;;;;902942;155;27436;-73
2023/04/18 01:31:10;;;;;;;5.50;4.83;;;8.20;68.00;;;;;;930014;149;27271;-73
2023/04/18 01:33:36;;;;;;;6.57;4.80;;;8.20;68.20;;;;;;910959;153;27393;-73
2023/04/18 01:36:03;;;;;;;6.67;5.23;;;8.10;68.20;;;;;;913563;154;27408;-72
2023/04/18 01:38:29;;;;;;;5.13;4.70;;;8.10;69.00;;;;;;913715;153;27411;-73
2023/04/18 01:40:56;;;;;;;6.70;5.20;;;8.10;68.20;;;;;;902930;153;27613;-73
2023/04/18 01:43:22;;;;;;;5.37;4.87;;;8.10;68.40;;;;;;913723;154;27452;-73
2023/04/18 01:45:50;;;;;;;4.87;4.47;;;8.10;68.50;;;;;;913208;154;27417;-73
2023/04/18 01:48:16;;;;;;;5.23;4.77;;;8.00;68.50;;;;;;912427;154;27876;-72
2023/04/18 01:50:42;;;;;;;5.83;4.93;;;8.00;68.90;;;;;;910601;154;27808;-72
2023/04/18 01:53:09;;;;;;;5.80;5.20;;;8.00;68.60;;;;;;931054;149;27338;-73
2023/04/18 01:55:35;;;;;;;6.00;5.13;;;8.00;68.70;;;;;;910951;153;27396;-73
2023/04/18 01:58:02;;;;;;;8.73;5.30;;;8.00;68.90;;;;;;909913;153;27377;-73
2023/04/18 02:00:29;;;;;;;5.73;5.20;;;8.00;68.90;;;;;;911122;153;27695;-73
2023/04/18 02:02:55;;;;;;;7.90;5.37;;;8.00;69.10;;;;;;900219;153;27428;-72
2023/04/18 02:05:22;;;;;;;6.80;5.53;;;8.00;69.00;;;;;;912964;154;27394;-72
2023/04/18 02:07:49;;;;;;;8.00;5.00;;;8.00;69.20;;;;;;914019;151;27465;-72
2023/04/18 02:10:15;;;;;;;5.47;4.97;;;8.00;69.10;;;;;;924289;153;27357;-73
2023/04/18 02:12:41;;;;;;;5.37;4.87;;;8.00;69.10;;;;;;924173;153;27355;-73
2023/04/18 02:15:08;;;;;;;5.27;4.60;;;7.90;69.10;;;;;;924551;154;27355;-75
2023/04/18 02:17:35;;;;;;;5.93;5.33;;;7.90;69.10;;;;;;938254;152;27365;-75
2023/04/18 02:20:01;;;;;;;5.80;5.30;;;7.90;69.10;;;;;;926144;152;27371;-75
2023/04/18 02:22:28;;;;;;;6.53;5.17;;;7.90;69.10;;;;;;921994;155;27356;-75
2023/04/18 02:24:54;;;;;;;5.27;4.77;;;7.90;69.40;;;;;;922404;152;27348;-75
2023/04/18 02:27:21;;;;;;;6.40;4.50;;;7.90;69.70;;;;;;933170;149;27296;-74
2023/04/18 02:29:48;;;;;;;5.80;5.00;;;7.90;69.90;;;;;;919954;152;27360;-75
2023/04/18 02:32:14;;;;;;;5.73;5.13;;;7.90;70.70;;;;;;932428;150;27314;-75
2023/04/18 02:34:41;;;;;;;7.47;5.07;;;7.80;69.90;;;;;;913066;156;27387;-75
2023/04/18 02:37:07;;;;;;;5.87;5.03;;;7.80;70.10;;;;;;917099;152;27314;-75
2023/04/18 02:39:34;;;;;;;5.60;5.00;;;7.80;70.20;;;;;;912732;153;27369;-75
2023/04/18 02:42:01;;;;;;;5.80;5.20;;;7.70;70.20;;;;;;913180;153;27487;-76
2023/04/18 02:44:27;;;;;;;6.30;5.70;;;7.70;70.90;;;;;;912518;157;27329;-75
2023/04/18 02:46:54;;;;;;;7.27;5.80;;;7.70;70.10;;;;;;933850;152;27426;-75
2023/04/18 02:49:20;;;;;;;5.27;4.77;;;7.60;70.40;;;;;;926483;152;27347;-73
2023/04/18 02:51:47;;;;;;;6.47;5.53;;;7.60;70.30;;;;;;924657;154;27373;-74
2023/04/18 02:54:13;;;;;;;8.70;5.90;;;7.60;70.60;;;;;;939013;149;27271;-73
2023/04/18 02:56:41;;;;;;;5.80;5.30;;;7.50;70.70;;;;;;938305;152;28823;-73
2023/04/18 02:59:07;;;;;;;6.37;5.27;;;7.50;70.90;;;;;;937857;149;27415;-73
2023/04/18 03:01:33;;;;;;;5.60;5.10;;;7.50;71.00;;;;;;923808;154;27362;-73
2023/04/18 03:04:00;;;;;;;8.83;5.33;;;7.50;71.20;;;;;;912883;153;27471;-73
2023/04/18 03:06:26;;;;;;;7.33;6.43;;;7.50;71.20;;;;;;924183;154;27433;-73
2023/04/18 03:08:53;;;;;;;6.57;5.83;;;7.50;71.40;;;;;;930337;151;27395;-75
2023/04/18 03:11:20;;;;;;;8.07;5.63;;;7.40;71.50;;;;;;945028;148;27606;-75
2023/04/18 03:13:46;;;;;;;5.77;5.27;;;7.40;71.50;;;;;;943811;148;27418;-76
2023/04/18 03:16:13;;;;;;;6.47;5.67;;;7.40;71.70;;;;;;942849;148;27325;-76
2023/04/18 03:18:39;;;;;;;6.20;5.60;;;7.40;71.80;;;;;;940179;150;27366;-76
2023/04/18 03:21:06;;;;;;;6.00;5.40;;;7.40;71.70;;;;;;939998;150;27283;-76
2023/04/18 03:23:32;;;;;;;6.00;5.40;;;7.30;72.00;;;;;;943906;148;27353;-76
2023/04/18 03:25:59;;;;;;;7.07;6.00;;;7.30;72.00;;;;;;931791;150;27470;-76
2023/04/18 03:28:26;;;;;;;7.20;6.10;;;7.30;72.10;;;;;;942536;149;27306;-76
2023/04/18 03:30:52;;;;;;;6.77;6.13;;;7.30;72.20;;;;;;948421;148;27328;-76
2023/04/18 03:33:19;;;;;;;7.03;5.77;;;7.30;72.50;;;;;;926837;149;27375;-76
2023/04/18 03:35:45;;;;;;;6.73;6.03;;;7.20;72.60;;;;;;944936;149;27471;-76
2023/04/18 03:38:12;;;;;;;6.27;5.67;;;7.20;72.60;;;;;;939976;151;28259;-76
2023/04/18 03:40:39;;;;;;;6.47;5.87;;;7.20;72.70;;;;;;939545;151;27328;-76
2023/04/18 03:43:05;;;;;;;7.13;6.20;;;7.20;72.80;;;;;;937422;152;27400;-76
2023/04/18 03:45:32;;;;;;;7.10;6.40;;;7.10;72.90;;;;;;925618;151;27387;-76
2023/04/18 03:47:58;;;;;;;7.60;6.63;;;7.10;72.90;;;;;;930117;153;27373;-76
2023/04/18 03:50:25;;;;;;;10.13;7.00;;;7.10;73.10;;;;;;929633;153;27418;-76
2023/04/18 03:52:51;;;;;;;7.87;7.13;;;7.10;73.20;;;;;;928966;153;27447;-76
2023/04/18 03:55:18;;;;;;;7.77;6.93;;;7.10;73.40;;;;;;929402;151;27511;-76
2023/04/18 03:57:45;;;;;;;7.73;6.93;;;7.00;73.50;;;;;;930178;153;27361;-76
2023/04/18 04:00:11;;;;;;;13.57;6.73;;;7.00;73.50;;;;;;929694;152;27462;-76
2023/04/18 04:02:38;;;;;;;7.17;6.47;;;7.00;73.70;;;;;;936969;150;27334;-76
2023/04/18 04:05:04;;;;;;;8.00;7.17;;;7.00;73.70;;;;;;942264;148;27387;-76
2023/04/18 04:07:31;;;;;;;7.23;6.53;;;7.00;73.90;;;;;;943016;148;27389;-76
2023/04/18 04:09:58;;;;;;;7.57;6.70;;;7.00;73.90;;;;;;941393;149;27404;-76
2023/04/18 04:12:24;;;;;;;10.37;7.77;;;7.00;73.90;;;;;;944108;147;27415;-76
2023/04/18 04:14:51;;;;;;;8.50;7.60;;;7.00;74.00;;;;;;944767;148;27397;-76
2023/04/18 04:17:17;;;;;;;9.17;7.70;;;7.00;74.10;;;;;;944257;148;27500;-76
2023/04/18 04:19:44;;;;;;;10.70;8.13;;;7.00;74.40;;;;;;945054;148;27455;-76
2023/04/18 04:22:11;;;;;;;8.80;7.57;;;7.00;74.30;;;;;;943731;148;27475;-75
2023/04/18 04:24:38;;;;;;;8.63;7.40;;;7.00;74.50;;;;;;948571;147;27291;-76
2023/04/18 04:27:04;;;;;;;9.17;7.57;;;7.00;74.70;;;;;;939608;149;27279;-76
2023/04/18 04:29:30;;;;;;;9.77;8.10;;;7.10;74.60;;;;;;921776;151;27335;-76
2023/04/18 04:31:58;;;;;;;10.80;7.97;;;7.10;74.70;;;;;;932225;150;27888;-76
2023/04/18 04:34:23;;;;;;;9.97;8.90;;;7.20;74.80;;;;;;941038;149;28027;-76
2023/04/18 04:36:50;;;;;;;10.47;8.37;;;7.30;75.00;;;;;;944791;148;27722;-76
2023/04/18 04:39:17;;;;;;;10.30;7.97;;;7.40;75.00;;;;;;943957;148;27304;-76
2023/04/18 04:41:43;;;;;;;9.17;8.23;;;7.50;75.20;;;;;;944473;148;27368;-76
2023/04/18 04:44:10;;;;;;;9.50;8.33;;;7.60;75.40;;;;;;943170;148;27356;-75
2023/04/18 04:46:39;;;;;;;9.30;8.33;;;7.70;75.40;;;;;;944346;148;27317;-76
2023/04/18 04:49:03;;;;;;;9.40;8.40;;;7.80;75.50;;;;;;940592;149;27411;-76
2023/04/18 04:51:30;;;;;;;9.17;8.20;;;7.90;75.30;;;;;;941476;149;27847;-76
2023/04/18 04:53:56;;;;;;;8.87;7.50;;;8.00;75.20;;;;;;941816;149;27378;-76
2023/04/18 04:56:23;;;;;;;9.97;7.90;;;8.10;75.20;;;;;;941205;149;27458;-76
2023/04/18 04:58:49;;;;;;;10.80;8.80;;;8.20;75.10;;;;;;940920;149;27389;-76
2023/04/18 05:01:16;;;;;;;9.80;7.97;;;8.30;75.00;;;;;;940893;149;27350;-76
2023/04/18 05:03:42;;;;;;;9.43;8.43;;;8.40;75.20;;;;;;942089;149;27298;-76
2023/04/18 05:06:09;;;;;;;14.97;8.77;;;8.50;75.30;;;;;;942216;149;27377;-76
2023/04/18 05:08:36;;;;;;;10.27;8.33;;;8.50;75.00;;;;;;941013;149;27443;-76
2023/04/18 05:11:02;;;;;;;10.17;8.30;;;8.60;75.60;;;;;;941673;149;27490;-76
2023/04/18 05:13:29;;;;;;;9.40;8.50;;;8.70;74.90;;;;;;945513;148;27345;-76
2023/04/18 05:15:58;;;;;;;9.60;8.60;;;8.80;74.80;;;;;;914398;152;27312;-76
2023/04/18 05:18:22;;;;;;;10.23;9.00;;;8.90;74.80;;;;;;910992;153;28341;-74
2023/04/18 05:20:49;;;;;;;10.43;9.00;;;8.90;74.70;;;;;;895393;155;27350;-73
2023/04/18 05:23:15;;;;;;;10.63;9.47;;;9.00;74.80;;;;;;896214;155;27303;-74
2023/04/18 05:25:42;;;;;;;12.73;9.47;;;9.10;74.70;;;;;;913708;154;27361;-73
2023/04/18 05:28:08;;;;;;;9.57;8.47;;;9.10;74.70;;;;;;913074;154;27396;-76
2023/04/18 05:30:35;;;;;;;10.47;9.37;;;9.20;74.60;;;;;;912608;154;27409;-76
2023/04/18 05:33:02;;;;;;;11.47;10.27;;;9.20;74.40;;;;;;913569;154;27361;-74
2023/04/18 05:35:28;;;;;;;10.13;9.10;;;9.30;74.40;;;;;;910584;153;27469;-73
2023/04/18 05:37:55;;;;;;;11.63;9.33;;;9.30;74.50;;;;;;913674;154;27386;-73
2023/04/18 05:40:21;;;;;;;10.87;9.67;;;9.40;74.50;;;;;;912406;154;27408;-74
2023/04/18 05:42:48;;;;;;;14.03;9.53;;;9.40;74.40;;;;;;912711;154;27319;-74
2023/04/18 05:45:14;;;;;;;10.73;9.63;;;9.50;74.60;;;;;;908840;155;27453;-74
2023/04/18 05:47:41;;;;;;;16.10;9.97;;;9.50;74.50;;;;;;906002;157;27861;-74
2023/04/18 05:50:08;;;;;;;11.63;9.50;;;9.50;74.60;;;;;;911565;154;27497;-73
2023/04/18 05:52:34;;;;;;;11.07;9.27;;;9.60;74.60;;;;;;911081;153;27389;-73
2023/04/18 05:55:01;;;;;;;12.17;10.47;;;9.60;74.50;;;;;;890703;156;27389;-73
2023/04/18 05:57:28;;;;;;;10.80;9.17;;;9.70;74.60;;;;;;931141;149;27322;-73
2023/04/18 05:59:54;;;;;;;11.00;9.90;;;9.70;74.60;;;;;;910717;153;27306;-74
2023/04/18 06:02:21;;;;;;;12.53;10.77;;;9.80;74.60;;;;;;910034;154;27413;-73
2023/04/18 06:04:48;;;;;;;11.40;10.30;;;9.80;74.60;;;;;;909877;155;27487;-73
2023/04/18 06:07:14;;;;;;;14.40;10.57;;;9.90;74.60;;;;;;906555;155;27312;-74
2023/04/18 06:09:41;;;;;;;11.67;10.20;;;10.00;74.60;;;;;;931570;149;27477;-74
2023/04/18 06:12:07;;;;;;;11.67;10.00;;;10.00;74.50;;;;;;946406;148;27392;-74
2023/04/18 06:14:34;;;;;;;9.70;8.80;;;10.10;74.50;;;;;;946916;148;27374;-72
2023/04/18 06:17:00;;;;;;;12.23;9.83;;;10.20;74.50;;;;;;943655;148;27258;-72
2023/04/18 06:19:27;;;;;;;15.40;10.50;;;10.20;74.40;;;;;;928877;149;27345;-72
2023/04/18 06:21:53;;;;;;;10.17;9.23;;;10.30;74.50;;;;;;927896;150;27429;-73
2023/04/18 06:24:20;;;;;;;10.97;9.87;;;10.40;74.40;;;;;;926036;151;27873;-72
2023/04/18 06:26:47;;;;;;;10.90;9.80;;;10.40;75.10;;;;;;943857;148;27336;-75
2023/04/18 06:29:13;;;;;;;10.90;9.13;;;10.50;74.20;;;;;;941143;149;27643;-74
2023/04/18 06:31:40;;;;;;;9.17;8.27;;;10.60;74.20;;;;;;941472;149;27403;-75
2023/04/18 06:34:06;;;;;;;9.47;8.57;;;10.70;74.20;;;;;;943524;148;27333;-75
2023/04/18 06:36:33;;;;;;;8.93;8.03;;;10.70;74.00;;;;;;941568;149;27358;-75
2023/04/18 06:39:00;;;;;;;10.10;8.23;;;10.80;73.90;;;;;;941237;149;27361;-75
2023/04/18 06:41:26;;;;;;;8.90;8.07;;;10.90;73.80;;;;;;940748;149;27360;-75
2023/04/18 06:43:53;;;;;;;9.60;8.27;;;10.90;73.80;;;;;;940502;149;27347;-75
2023/04/18 06:46:19;;;;;;;10.43;9.33;;;11.00;73.60;;;;;;942581;148;27357;-75
2023/04/18 06:48:46;;;;;;;11.73;9.10;;;11.00;73.70;;;;;;927261;150;27369;-75
2023/04/18 06:51:13;;;;;;;9.83;8.47;;;11.10;73.60;;;;;;926978;150;27451;-75
2023/04/18 06:53:39;;;;;;;10.53;7.80;;;11.20;73.60;;;;;;941906;149;27412;-75
2023/04/18 06:56:06;;;;;;;9.80;8.30;;;11.20;73.50;;;;;;941595;149;27369;-75
2023/04/18 06:58:32;;;;;;;9.03;8.13;;;11.30;74.30;;;;;;939021;150;27364;-75
2023/04/18 07:00:59;;;;;;;11.77;9.37;;;11.40;73.60;;;;;;938807;150;27334;-75
2023/04/18 07:03:25;;;;;;;10.70;9.70;;;11.50;73.70;;;;;;943581;148;27258;-74
2023/04/18 07:05:54;;;;;;;10.63;9.53;;;11.50;73.50;;;;;;941018;149;27318;-75
2023/04/18 07:08:19;;;;;;;9.13;8.27;;;11.60;73.50;;;;;;943011;148;27352;-75
2023/04/18 07:10:45;;;;;;;9.67;8.20;;;11.70;73.30;;;;;;943809;148;27414;-75
2023/04/18 07:13:12;;;;;;;8.27;7.47;;;11.80;73.20;;;;;;933184;151;27290;-75
2023/04/18 07:15:38;;;;;;;8.27;7.47;;;11.90;73.20;;;;;;930993;151;27317;-75
2023/04/18 07:18:05;;;;;;;8.37;7.17;;;12.00;73.20;;;;;;909165;155;27488;-75
2023/04/18 07:20:32;;;;;;;10.23;7.43;;;12.00;73.30;;;;;;922406;151;27400;-75
2023/04/18 07:22:58;;;;;;;8.40;7.53;;;12.20;73.40;;;;;;901726;153;27450;-75
2023/04/18 07:25:25;;;;;;;8.43;7.63;;;12.30;73.40;;;;;;902753;155;27455;-75
2023/04/18 07:27:51;;;;;;;7.92;6.92;;;12.40;73.50;;;;;;911664;153;27379;-72
2023/04/18 07:30:18;;;;;;;8.20;7.27;;;12.60;73.60;;;;;;920239;153;27443;-72
2023/04/18 07:32:46;;;;;;;8.43;6.95;;;12.80;74.00;;;;;;920941;153;27387;-73
2023/04/18 07:35:11;;;;;;;7.35;6.65;;;13.00;75.00;;;;;;920747;153;27328;-73
2023/04/18 07:37:38;;;;;;;6.25;5.65;;;13.40;75.60;;;;;;919740;152;27357;-73
2023/04/18 07:40:04;;;;;;;7.05;6.35;;;13.70;75.10;;;;;;919460;152;27503;-73
2023/04/18 07:42:31;;;;;;;7.17;6.00;;;14.10;74.20;;;;;;912911;152;27376;-73
2023/04/18 07:44:58;;;;;;;6.20;5.60;;;14.40;73.80;;;;;;914715;152;27418;-73
2023/04/18 07:47:25;;;;;;;6.33;5.70;;;14.60;71.90;;;;;;913220;152;27326;-72
2023/04/18 07:49:51;;;;;;;6.28;5.67;;;14.90;71.20;;;;;;913165;152;27335;-73
2023/04/18 07:52:17;;;;;;;6.20;5.58;;;15.00;70.70;;;;;;914037;152;27390;-73
2023/04/18 07:54:44;;;;;;;5.53;5.03;;;15.20;70.30;;;;;;914536;152;27415;-73
2023/04/18 07:57:10;;;;;;;6.75;5.30;;;15.30;69.90;;;;;;914924;152;27329;-72
2023/04/18 07:59:37;;;;;;;6.75;4.87;;;15.50;69.60;;;;;;919554;151;27279;-73
2023/04/18 08:02:04;;;;;;;6.85;5.47;;;15.60;69.20;;;;;;918026;151;27932;-72
2023/04/18 08:04:30;;;;;;;6.15;5.58;;;15.70;68.70;;;;;;922307;152;27317;-73
2023/04/18 08:06:57;;;;;;;5.20;4.80;;;15.80;68.30;;;;;;919446;151;27296;-73
2023/04/18 08:09:23;;;;;;;5.80;5.15;;;15.90;68.00;;;;;;917332;151;27354;-73
2023/04/18 08:11:50;;;;;;;5.97;5.37;;;16.00;67.90;;;;;;908491;153;27495;-73
2023/04/18 08:14:17;;;;;;;6.42;5.83;;;16.10;68.10;;;;;;943658;149;27493;-73
2023/04/18 08:16:43;;;;;;;7.40;5.40;;;16.30;68.00;;;;;;941309;149;27377;-73
2023/04/18 08:19:10;;;;;;;8.03;5.72;;;16.40;67.90;;;;;;942360;149;27371;-73
2023/04/18 08:21:38;;;;;;;5.10;4.70;;;16.60;67.80;;;;;;944281;148;27405;-73
2023/04/18 08:24:03;;;;;;;5.60;5.10;;;16.70;67.50;;;;;;943988;148;27338;-73
2023/04/18 08:26:30;;;;;;;5.58;4.97;;;16.90;67.10;;;;;;938200;150;27362;-73
2023/04/18 08:28:56;;;;;;;5.12;4.55;;;17.00;66.40;;;;;;937835;150;27356;-73
2023/04/18 08:31:23;;;;;;;5.30;4.80;;;17.10;66.00;;;;;;944431;148;27314;-73
2023/04/18 08:33:49;;;;;;;5.50;4.75;;;17.20;65.80;;;;;;943893;148;27313;-73
2023/04/18 08:36:16;;;;;;;5.08;4.65;;;17.30;65.70;;;;;;943586;148;27734;-73
2023/04/18 08:38:43;;;;;;;9.08;4.83;;;17.40;65.30;;;;;;941534;149;27450;-73
2023/04/18 08:41:09;;;;;;;4.95;4.53;;;17.50;65.00;;;;;;941434;149;27334;-73
2023/04/18 08:43:36;;;;;;;4.92;4.53;;;17.60;65.10;;;;;;942093;149;27386;-73
2023/04/18 08:46:02;;;;;;;4.75;4.30;;;17.80;65.60;;;;;;942212;149;27451;-73
2023/04/18 08:48:29;;;;;;;4.35;3.95;;;18.10;66.00;;;;;;942218;149;27349;-73
2023/04/18 08:50:58;;;;;;;4.72;4.33;;;18.60;66.80;;;;;;943393;148;27303;-73
2023/04/18 08:53:25;;;;;;;4.72;3.92;;;19.20;67.30;;;;;;943638;148;27755;-73
2023/04/18 08:55:55;;;;;;;5.30;3.92;;;19.90;66.70;;;;;;948444;147;27331;-73
2023/04/18 08:58:26;;;;;;;4.33;3.92;;;20.60;65.30;;;;;;947983;147;27428;-73
2023/04/18 09:00:51;;;;;;;4.45;4.05;;;21.30;64.60;;;;;;939618;150;27362;-74
2023/04/18 09:03:17;;;;;;;6.72;4.62;;;22.00;63.70;;;;;;939570;149;27409;-73
2023/04/18 09:05:45;;;;;;;4.20;3.80;;;22.50;61.70;;;;;;938302;150;27364;-73
2023/04/18 09:08:25;;;;;;;3.83;3.52;;;23.00;60.30;;;;;;940175;149;27474;-73
2023/04/18 09:10:49;;;;;;;3.67;3.37;;;23.40;59.30;;;;;;943400;148;27315;-74
2023/04/18 09:13:17;;;;;;;4.00;3.70;;;23.70;58.30;;;;;;926245;149;27398;-74
2023/04/18 09:15:44;;;;;;;3.90;3.60;;;24.10;58.00;;;;;;944509;151;27324;-74
2023/04/18 09:18:09;;;;;;;3.75;3.45;;;24.40;57.50;;;;;;946233;151;27346;-74
2023/04/18 09:20:39;;;;;;;4.25;3.85;;;24.60;56.90;;;;;;939086;149;27452;-74
2023/04/18 09:23:05;;;;;;;3.37;3.08;;;24.70;55.50;;;;;;945510;148;27266;-73
2023/04/18 09:25:36;;;;;;;3.60;3.30;;;24.60;54.80;;;;;;942381;149;27287;-74
2023/04/18 09:28:22;;;;;;;3.45;3.05;;;24.50;53.90;;;;;;937948;150;27401;-73
2023/04/18 09:30:50;;;;;;;3.65;3.35;;;24.40;53.60;;;;;;938468;150;27379;-74
2023/04/18 09:33:16;;;;;;;3.45;3.15;;;24.10;53.30;;;;;;938291;150;27272;-73
2023/04/18 09:35:42;;;;;;;3.62;3.33;;;23.90;52.80;;;;;;937990;150;27295;-73
2023/04/18 09:38:09;;;;;;;3.65;3.27;;;23.70;53.00;;;;;;938581;150;27339;-73
2023/04/18 09:40:35;;;;;;;3.25;3.05;;;23.40;53.00;;;;;;943473;148;27348;-73
2023/04/18 09:43:02;;;;;;;3.55;3.25;;;23.20;53.10;;;;;;944090;148;27369;-73
2023/04/18 09:45:28;;;;;;;3.70;3.40;;;23.00;53.20;;;;;;940371;149;27448;-73
2023/04/18 09:47:55;;;;;;;3.72;3.42;;;22.80;53.20;;;;;;941315;149;27346;-73
2023/04/18 09:50:21;;;;;;;3.22;3.02;;;22.60;53.30;;;;;;941160;149;27385;-73
2023/04/18 09:52:57;;;;;;;3.20;3.00;;;22.50;53.50;;;;;;943798;148;27356;-74
2023/04/18 09:55:24;;;;;;;3.27;3.08;;;22.30;54.10;;;;;;941307;148;27463;-74
2023/04/18 09:57:50;;;;;;;3.62;3.33;;;22.30;54.20;;;;;;944367;148;27667;-74
2023/04/18 10:00:22;;;;;;;4.42;2.90;;;22.20;54.10;;;;;;941559;149;27345;-73
2023/04/18 10:02:58;;;;;;;3.20;3.00;;;22.20;54.20;;;;;;940436;149;27370;-73
2023/04/18 10:05:24;;;;;;;3.33;3.02;;;22.10;54.20;;;;;;941759;149;27446;-73
2023/04/18 10:07:51;;;;;;;2.95;2.75;;;22.10;54.10;;;;;;940806;149;27351;-73
2023/04/18 10:10:18;;;;;;;3.25;3.00;;;22.10;54.10;;;;;;942768;149;27474;-73
2023/04/18 10:12:46;;;;;;;2.75;2.55;;;22.10;53.90;;;;;;944227;148;27388;-74
2023/04/18 10:15:11;;;;;;;3.33;3.00;;;22.10;54.00;;;;;;939005;148;27349;-73
2023/04/18 10:17:56;;;;;;;3.20;2.90;;;22.00;53.70;;;;;;943579;151;27384;-73
2023/04/18 10:20:22;;;;;;;2.92;2.70;;;22.00;53.70;;;;;;942446;149;27338;-73
2023/04/18 10:22:49;;;;;;;2.52;2.33;;;22.00;53.50;;;;;;935971;148;27296;-79
2023/04/18 10:25:34;;;;;;;2.83;2.62;;;22.00;53.50;;;;;;936056;148;27435;-80
2023/04/18 10:28:00;;;;;;;3.45;2.77;;;22.00;53.40;;;;;;927828;149;27805;-80
2023/04/18 10:30:43;;;;;;;2.70;2.50;;;22.00;53.30;;;;;;938953;150;27481;-80
2023/04/18 10:33:21;;;;;;;2.58;2.35;;;22.00;53.10;;;;;;931317;149;27431;-80
2023/04/18 10:35:58;;;;;;;3.10;2.35;;;22.00;53.20;;;;;;934236;149;27300;-80
2023/04/18 10:38:26;;;;;;;2.83;2.62;;;22.00;53.60;;;;;;939665;150;27362;-80
2023/04/18 10:40:52;;;;;;;2.80;2.60;;;22.00;53.10;;;;;;940374;150;27327;-80
2023/04/18 10:43:18;;;;;;;2.80;2.60;;;22.00;53.30;;;;;;936071;149;27328;-80
2023/04/18 10:45:45;;;;;;;2.87;2.67;;;22.00;53.20;;;;;;940596;147;27257;-80
2023/04/18 10:48:31;;;;;;;2.80;2.60;;;21.90;53.20;;;;;;937043;148;27306;-80
2023/04/18 10:51:14;;;;;;;2.55;2.35;;;22.00;53.20;;;;;;917371;150;27548;-80
2023/04/18 10:53:41;;;;;;;3.25;2.60;;;22.00;53.20;;;;;;941818;147;27841;-80
2023/04/18 10:56:07;;;;;;;2.77;2.58;;;22.00;53.10;;;;;;930613;148;27275;-80
2023/04/18 10:58:34;;;;;;;2.40;2.20;;;22.00;52.80;;;;;;937228;148;27852;-80
2023/04/18 11:01:01;;;;;;;2.70;2.50;;;22.00;52.90;;;;;;937508;148;27346;-80
2023/04/18 11:03:33;;;;;;;2.52;2.33;;;22.10;53.10;;;;;;942026;147;27352;-80
2023/04/18 11:06:02;;;;;;;2.55;2.35;;;22.10;52.30;;;;;;934723;148;27387;-81
2023/04/18 11:08:29;;;;;;;2.20;2.10;;;22.20;52.50;;;;;;927112;149;27339;-81
2023/04/18 11:10:55;;;;;;;2.72;2.52;;;22.20;52.30;;;;;;921346;150;27372;-81
2023/04/18 11:13:22;;;;;;;1.95;1.82;;;22.10;52.10;;;;;;936003;148;27446;-79
2023/04/18 11:15:49;;;;;;;3.25;2.95;;;22.10;52.20;;;;;;918235;150;27426;-81
2023/04/18 11:18:15;;;;;;;2.30;2.10;;;22.00;51.80;;;;;;937217;149;27415;-80
2023/04/18 11:20:48;;;;;;;2.05;1.95;;;22.00;52.00;;;;;;937150;148;27325;-81
2023/04/18 11:23:20;;;;;;;2.10;1.82;;;21.90;51.80;;;;;;937341;148;27361;-81
2023/04/18 11:25:45;;;;;;;2.65;2.45;;;21.70;51.90;;;;;;936371;148;27339;-81
2023/04/18 11:28:15;;;;;;;4.97;2.65;;;21.70;52.00;;;;;;937568;149;27737;-81
2023/04/18 11:30:37;;;;;;;2.50;2.22;;;21.60;51.70;;;;;;928927;149;27666;-80
2023/04/18 11:33:04;;;;;;;2.08;1.95;;;21.40;51.50;;;;;;935385;149;27347;-80
2023/04/18 11:35:31;;;;;;;2.42;2.22;;;21.30;51.40;;;;;;936746;149;27687;-80
2023/04/18 11:37:57;;;;;;;2.60;2.40;;;21.10;51.50;;;;;;940720;150;27356;-80
2023/04/18 11:40:24;;;;;;;3.70;2.30;;;21.00;51.60;;;;;;936370;149;27420;-80
2023/04/18 11:42:50;;;;;;;2.80;2.60;;;20.90;51.70;;;;;;941342;150;27433;-80
2023/04/18 11:45:17;;;;;;;2.65;2.45;;;20.80;51.80;;;;;;940776;148;27351;-80
2023/04/18 11:47:44;;;;;;;2.62;2.42;;;20.70;52.10;;;;;;936970;148;27443;-81
2023/04/18 11:50:10;;;;;;;3.45;2.80;;;20.60;52.30;;;;;;919178;150;27419;-80
2023/04/18 11:52:37;;;;;;;2.47;2.27;;;20.50;52.30;;;;;;924126;150;27342;-80
2023/04/18 11:55:20;;;;;;;2.55;2.35;;;20.40;52.30;;;;;;936581;149;27433;-80
2023/04/18 11:57:41;;;;;;;2.40;2.30;;;20.40;52.30;;;;;;942207;148;27322;-80
2023/04/18 12:00:09;;;;;;;2.27;2.12;;;20.40;52.30;;;;;;916654;152;27454;-80
2023/04/18 12:02:41;;;;;;;2.25;2.05;;;20.30;52.30;;;;;;937180;148;27348;-80
2023/04/18 12:05:08;;;;;;;2.42;2.30;;;20.30;52.30;;;;;;915864;151;27327;-80
2023/04/18 12:07:40;;;;;;;2.27;2.08;;;20.30;52.50;;;;;;936731;148;27374;-80
2023/04/18 12:10:22;;;;;;;2.08;1.98;;;20.30;52.50;;;;;;935224;149;27478;-80
2023/04/18 12:12:48;;;;;;;2.80;2.58;;;20.20;52.20;;;;;;939037;150;27454;-80
2023/04/18 12:15:15;;;;;;;2.30;2.20;;;20.20;52.30;;;;;;933727;150;27486;-80
2023/04/18 12:17:44;;;;;;;2.40;2.20;;;20.20;52.50;;;;;;918006;152;27407;-79
2023/04/18 12:20:12;;;;;;;2.47;2.15;;;20.10;52.70;;;;;;929721;152;27402;-80
2023/04/18 12:22:43;;;;;;;2.72;2.52;;;20.10;52.70;;;;;;925464;151;27315;-80
2023/04/18 12:25:07;;;;;;;2.70;2.30;;;20.10;52.80;;;;;;940353;149;27323;-74
2023/04/18 12:27:46;;;;;;;3.27;3.08;;;20.10;52.90;;;;;;941540;149;27353;-80
2023/04/18 12:30:13;;;;;;;2.50;2.30;;;20.10;52.90;;;;;;930478;151;27368;-80
2023/04/18 12:32:39;;;;;;;2.80;2.60;;;20.10;53.10;;;;;;927608;153;27369;-80
2023/04/18 12:35:06;;;;;;;2.60;2.40;;;20.10;53.10;;;;;;940670;149;27399;-80
2023/04/18 12:37:32;;;;;;;2.87;2.62;;;20.20;53.10;;;;;;941049;151;27780;-80
2023/04/18 12:39:59;;;;;;;2.95;2.65;;;20.20;53.00;;;;;;939194;151;27348;-80
2023/04/18 12:42:26;;;;;;;2.80;2.60;;;20.20;52.50;;;;;;940386;152;27349;-80
2023/04/18 12:44:52;;;;;;;2.85;2.65;;;20.20;52.50;;;;;;924330;154;27328;-80
2023/04/18 12:47:19;;;;;;;2.75;2.55;;;20.20;52.70;;;;;;918568;155;27407;-80
2023/04/18 12:49:45;;;;;;;4.05;2.85;;;20.20;52.50;;;;;;930596;151;27322;-80